createdAt,value
2018-06-27T00:02:09.448Z,13.27
2018-06-27T00:04:38.876Z,13.24
2018-06-27T00:07:08.281Z,13.24
2018-06-27T00:09:37.838Z,13.21
2018-06-27T00:12:07.111Z,13.23
2018-06-27T00:14:37.564Z,13.22
2018-06-27T00:17:07.886Z,13.17
2018-06-27T00:19:37.830Z,13.12
2018-06-27T00:22:07.244Z,13.18
2018-06-27T00:24:37.060Z,13.04
2018-06-27T00:27:06.743Z,12.95
2018-06-27T00:29:36.911Z,12.87
2018-06-27T00:32:06.272Z,12.83
2018-06-27T00:34:35.748Z,12.96
2018-06-27T00:37:06.230Z,12.94
2018-06-27T00:39:35.632Z,13.00
2018-06-27T00:42:05.067Z,13.02
2018-06-27T00:44:35.150Z,13.08
2018-06-27T00:47:04.433Z,13.12
2018-06-27T00:49:33.761Z,13.08
2018-06-27T00:52:03.080Z,13.00
2018-06-27T00:54:32.833Z,13.05
2018-06-27T00:57:02.877Z,13.06
2018-06-27T00:59:32.243Z,12.91
2018-06-27T01:02:02.498Z,12.95
2018-06-27T01:04:31.738Z,12.96
2018-06-27T01:07:02.058Z,12.89
2018-06-27T01:09:31.497Z,12.83
2018-06-27T01:12:00.794Z,12.76
2018-06-27T01:14:30.746Z,12.85
2018-06-27T01:17:00.032Z,12.75
2018-06-27T01:19:30.678Z,12.80
2018-06-27T01:22:00.899Z,12.86
2018-06-27T01:24:30.275Z,12.90
2018-06-27T01:26:59.538Z,12.90
2018-06-27T01:29:28.933Z,12.83
2018-06-27T01:32:00.184Z,12.81
2018-06-27T01:34:30.581Z,12.83
2018-06-27T01:37:01.199Z,12.86
2018-06-27T01:39:30.527Z,12.84
2018-06-27T01:41:59.835Z,12.82
2018-06-27T01:44:30.056Z,12.84
2018-06-27T01:46:59.276Z,12.86
2018-06-27T01:49:29.054Z,12.79
2018-06-27T01:51:59.681Z,12.81
2018-06-27T01:54:29.808Z,12.89
2018-06-27T01:56:59.211Z,12.89
2018-06-27T01:59:28.670Z,12.90
2018-06-27T02:01:57.906Z,12.84
2018-06-27T02:04:27.352Z,12.73
2018-06-27T02:06:56.773Z,12.77
2018-06-27T02:09:28.344Z,12.77
2018-06-27T02:11:57.603Z,12.82
2018-06-27T02:14:27.830Z,12.78
2018-06-27T02:16:57.268Z,12.70
2018-06-27T02:19:26.412Z,12.76
2018-06-27T02:21:55.767Z,12.78
2018-06-27T02:24:26.526Z,12.80
2018-06-27T02:26:56.663Z,12.83
2018-06-27T02:29:26.017Z,12.73
2018-06-27T02:31:56.898Z,12.55
2018-06-27T02:34:26.220Z,12.64
2018-06-27T02:36:56.333Z,12.65
2018-06-27T02:39:25.887Z,12.58
2018-06-27T02:41:55.069Z,12.51
2018-06-27T02:44:24.492Z,12.50
2018-06-27T02:46:54.143Z,12.56
2018-06-27T02:49:23.637Z,12.47
2018-06-27T02:51:53.134Z,12.51
2018-06-27T02:54:23.267Z,12.45
2018-06-27T02:56:52.981Z,12.39
2018-06-27T02:59:23.332Z,12.47
2018-06-27T03:01:54.806Z,12.48
2018-06-27T03:04:24.956Z,12.37
2018-06-27T03:06:54.407Z,12.43
2018-06-27T03:09:24.432Z,12.58
2018-06-27T03:11:53.770Z,12.56
2018-06-27T03:14:23.139Z,12.41
2018-06-27T03:16:54.320Z,12.37
2018-06-27T03:19:24.904Z,12.43
2018-06-27T03:21:54.368Z,12.43
2018-06-27T03:24:24.562Z,12.37
2018-06-27T03:26:54.024Z,12.31
2018-06-27T03:29:24.346Z,12.33
2018-06-27T03:31:55.956Z,12.25
2018-06-27T03:34:25.260Z,12.21
2018-06-27T03:36:56.755Z,12.31
2018-06-27T03:39:26.078Z,12.28
2018-06-27T03:41:55.455Z,12.23
2018-06-27T03:44:24.926Z,12.27
2018-06-27T03:46:54.417Z,12.43
2018-06-27T03:49:26.379Z,12.52
2018-06-27T03:51:55.751Z,12.42
2018-06-27T03:54:25.641Z,12.42
2018-06-27T03:56:56.831Z,12.47
2018-06-27T03:59:26.171Z,12.47
2018-06-27T04:01:55.414Z,12.49
2018-06-27T04:04:24.971Z,12.55
2018-06-27T04:06:54.505Z,12.56
2018-06-27T04:09:24.012Z,12.54
2018-06-27T04:11:53.261Z,12.58
2018-06-27T04:14:23.058Z,12.59
2018-06-27T04:16:52.616Z,12.54
2018-06-27T04:19:23.874Z,12.57
2018-06-27T04:21:55.282Z,12.64
2018-06-27T04:24:25.021Z,12.67
2018-06-27T04:26:55.210Z,12.62
2018-06-27T04:29:24.704Z,12.57
2018-06-27T04:31:55.296Z,12.58
2018-06-27T04:34:24.576Z,12.65
2018-06-27T04:36:54.086Z,12.59
2018-06-27T04:39:23.564Z,12.61
2018-06-27T04:41:54.087Z,12.70
2018-06-27T04:44:23.472Z,12.81
2018-06-27T04:46:52.848Z,12.74
2018-06-27T04:49:22.206Z,12.80
2018-06-27T04:51:54.803Z,12.80
2018-06-27T04:54:24.038Z,12.80
2018-06-27T04:56:54.751Z,12.84
2018-06-27T04:59:24.207Z,12.88
2018-06-27T05:01:54.211Z,12.86
2018-06-27T05:04:23.632Z,12.86
2018-06-27T05:06:53.011Z,12.76
2018-06-27T05:09:22.373Z,12.82
2018-06-27T05:11:51.930Z,12.74
2018-06-27T05:14:21.347Z,12.90
2018-06-27T05:16:51.351Z,12.91
2018-06-27T05:19:21.610Z,12.90
2018-06-27T05:21:50.995Z,12.87
2018-06-27T05:24:20.255Z,12.81
2018-06-27T05:26:50.692Z,12.87
2018-06-27T05:29:20.014Z,12.80
2018-06-27T05:31:49.399Z,12.75
2018-06-27T05:34:18.602Z,12.72
2018-06-27T05:36:47.828Z,12.80
2018-06-27T05:39:17.245Z,12.83
2018-06-27T05:41:46.750Z,12.95
2018-06-27T05:44:16.834Z,12.92
2018-06-27T05:46:46.236Z,12.75
2018-06-27T05:49:15.594Z,12.80
2018-06-27T05:51:44.996Z,12.82
2018-06-27T05:54:14.307Z,12.95
2018-06-27T05:56:43.962Z,13.02
2018-06-27T05:59:13.415Z,13.10
2018-06-27T06:01:42.930Z,12.97
2018-06-27T06:04:12.170Z,12.86
2018-06-27T06:06:43.659Z,12.98
2018-06-27T06:09:13.554Z,13.12
2018-06-27T06:11:42.718Z,13.14
2018-06-27T06:14:12.018Z,13.08
2018-06-27T06:16:42.477Z,13.16
2018-06-27T06:19:12.004Z,13.24
2018-06-27T06:21:42.345Z,13.14
2018-06-27T06:24:13.721Z,13.08
2018-06-27T06:26:42.911Z,13.07
2018-06-27T06:29:12.284Z,13.16
2018-06-27T06:31:44.208Z,13.27
2018-06-27T06:34:14.689Z,13.22
2018-06-27T06:36:44.130Z,13.17
2018-06-27T06:39:14.229Z,13.08
2018-06-27T06:41:43.451Z,13.21
2018-06-27T06:44:13.580Z,13.30
2018-06-27T06:46:42.917Z,13.26
2018-06-27T06:49:12.121Z,13.33
2018-06-27T06:51:42.357Z,13.32
2018-06-27T06:54:12.637Z,13.37
2018-06-27T06:56:42.868Z,13.43
2018-06-27T06:59:13.450Z,13.47
2018-06-27T07:01:42.727Z,13.37
2018-06-27T07:04:12.019Z,13.35
2018-06-27T07:06:41.335Z,13.56
2018-06-27T07:09:12.612Z,13.72
2018-06-27T07:11:41.977Z,13.59
2018-06-27T07:14:13.931Z,13.57
2018-06-27T07:16:43.241Z,13.44
2018-06-27T07:19:15.970Z,13.37
2018-06-27T07:21:45.745Z,13.38
2018-06-27T07:24:14.955Z,13.34
2018-06-27T07:26:44.370Z,13.45
2018-06-27T07:29:13.710Z,13.46
2018-06-27T07:31:43.119Z,13.40
2018-06-27T07:34:12.455Z,13.49
2018-06-27T07:36:42.783Z,13.58
2018-06-27T07:39:14.160Z,13.54
2018-06-27T07:41:43.621Z,13.48
2018-06-27T07:44:13.059Z,13.58
2018-06-27T07:46:42.340Z,13.72
2018-06-27T07:49:11.928Z,13.69
2018-06-27T07:51:41.663Z,13.64
2018-06-27T07:54:10.996Z,13.63
2018-06-27T07:56:42.058Z,13.58
2018-06-27T07:59:11.927Z,13.64
2018-06-27T08:01:41.387Z,13.69
2018-06-27T08:04:10.634Z,13.63
2018-06-27T08:06:46.041Z,13.73
2018-06-27T08:09:15.342Z,13.85
2018-06-27T08:11:45.458Z,13.84
2018-06-27T08:14:14.864Z,13.72
2018-06-27T08:16:45.030Z,13.76
2018-06-27T08:19:15.669Z,13.86
2018-06-27T08:21:46.345Z,13.94
2018-06-27T08:24:15.858Z,13.96
2018-06-27T08:26:45.372Z,14.18
2018-06-27T08:29:14.848Z,14.55
2018-06-27T08:31:45.139Z,14.49
2018-06-27T08:34:14.457Z,14.70
2018-06-27T08:36:43.900Z,14.72
2018-06-27T08:39:14.000Z,14.55
2018-06-27T08:41:43.399Z,14.65
2018-06-27T08:44:12.856Z,14.60
2018-06-27T08:46:42.275Z,14.69
2018-06-27T08:49:11.689Z,14.75
2018-06-27T08:51:41.750Z,14.85
2018-06-27T08:54:11.171Z,15.42
2018-06-27T08:56:41.472Z,15.75
2018-06-27T08:59:11.011Z,15.71
2018-06-27T09:01:40.293Z,15.53
2018-06-27T09:04:09.782Z,15.27
2018-06-27T09:06:38.971Z,15.16
2018-06-27T09:09:12.139Z,15.01
2018-06-27T09:11:41.883Z,14.94
2018-06-27T09:14:12.295Z,14.85
2018-06-27T09:16:42.163Z,14.90
2018-06-27T09:19:12.168Z,14.87
2018-06-27T09:21:42.977Z,14.79
2018-06-27T09:24:13.211Z,14.75
2018-06-27T09:26:43.887Z,14.78
2018-06-27T09:29:13.089Z,14.65
2018-06-27T09:31:43.588Z,14.49
2018-06-27T09:34:14.316Z,14.30
2018-06-27T09:36:45.447Z,14.26
2018-06-27T09:39:15.634Z,14.30
2018-06-27T09:41:46.716Z,14.34
2018-06-27T09:44:16.160Z,14.34
2018-06-27T09:46:46.413Z,14.34
2018-06-27T09:49:15.965Z,14.52
2018-06-27T09:51:46.442Z,14.53
2018-06-27T09:54:17.068Z,14.72
2018-06-27T09:56:46.487Z,14.57
2018-06-27T09:59:17.064Z,14.59
2018-06-27T10:01:47.000Z,14.70
2018-06-27T10:04:16.432Z,14.56
2018-06-27T10:06:45.828Z,14.34
2018-06-27T10:09:15.675Z,14.35
2018-06-27T10:11:45.239Z,14.27
2018-06-27T10:14:14.704Z,14.29
2018-06-27T10:16:44.174Z,14.28
2018-06-27T10:19:13.416Z,14.07
2018-06-27T10:21:43.030Z,14.13
2018-06-27T10:24:13.067Z,14.01
2018-06-27T10:26:42.528Z,13.79
2018-06-27T10:29:11.933Z,13.76
2018-06-27T10:31:42.196Z,14.01
2018-06-27T10:34:11.383Z,14.20
2018-06-27T10:36:42.021Z,14.21
2018-06-27T10:39:13.306Z,14.51
2018-06-27T10:41:42.543Z,14.89
2018-06-27T10:44:11.848Z,14.76
2018-06-27T10:46:41.196Z,14.80
2018-06-27T10:49:10.530Z,14.96
2018-06-27T10:51:41.214Z,15.25
2018-06-27T10:54:12.272Z,15.71
2018-06-27T10:56:42.525Z,15.86
2018-06-27T10:59:11.871Z,15.99
2018-06-27T11:01:41.110Z,16.24
2018-06-27T11:04:10.644Z,15.49
2018-06-27T11:06:40.260Z,15.54
2018-06-27T11:09:11.429Z,15.75
2018-06-27T11:11:41.718Z,16.02
2018-06-27T11:14:11.045Z,15.94
2018-06-27T11:16:40.321Z,16.17
2018-06-27T11:19:10.517Z,17.00
2018-06-27T11:21:40.352Z,16.88
2018-06-27T11:24:10.369Z,16.86
2018-06-27T11:26:39.917Z,16.83
2018-06-27T11:29:10.228Z,16.72
2018-06-27T11:31:40.712Z,16.80
2018-06-27T11:34:11.167Z,16.72
2018-06-27T11:36:40.723Z,16.41
2018-06-27T11:39:12.412Z,16.49
2018-06-27T11:41:42.746Z,16.38
2018-06-27T11:44:13.234Z,16.55
2018-06-27T11:46:43.283Z,16.74
2018-06-27T11:49:12.707Z,16.58
2018-06-27T11:51:43.247Z,16.72
2018-06-27T11:54:16.565Z,16.66
2018-06-27T11:56:46.164Z,16.23
2018-06-27T11:59:15.707Z,15.82
2018-06-27T12:01:45.317Z,15.84
2018-06-27T12:04:14.699Z,15.65
2018-06-27T12:06:44.321Z,15.69
2018-06-27T12:09:14.364Z,15.70
2018-06-27T12:11:43.744Z,15.61
2018-06-27T12:14:13.350Z,15.39
2018-06-27T12:16:44.342Z,15.33
2018-06-27T12:19:13.652Z,14.95
2018-06-27T12:21:45.305Z,14.67
2018-06-27T12:24:14.719Z,14.68
2018-06-27T12:26:44.704Z,14.35
2018-06-27T12:29:14.129Z,14.32
2018-06-27T12:31:43.568Z,14.27
2018-06-27T12:34:13.106Z,14.70
2018-06-27T12:36:42.649Z,15.59
2018-06-27T12:39:12.966Z,15.92
2018-06-27T12:41:43.198Z,15.76
2018-06-27T12:44:13.937Z,15.25
2018-06-27T12:46:44.408Z,14.99
2018-06-27T12:49:14.494Z,14.82
2018-06-27T12:51:43.933Z,14.65
2018-06-27T12:54:13.881Z,14.68
2018-06-27T12:56:44.402Z,15.34
2018-06-27T12:59:14.155Z,15.92
2018-06-27T13:01:43.624Z,16.31
2018-06-27T13:04:12.933Z,16.15
2018-06-27T13:06:42.510Z,16.62
2018-06-27T13:09:12.742Z,17.16
2018-06-27T13:11:42.249Z,17.02
2018-06-27T13:14:11.326Z,16.80
2018-06-27T13:16:40.781Z,17.07
2018-06-27T13:19:12.593Z,17.63
2018-06-27T13:21:42.077Z,17.79
2018-06-27T13:24:11.981Z,18.15
2018-06-27T13:26:41.321Z,18.10
2018-06-27T13:29:10.983Z,18.14
2018-06-27T13:31:40.478Z,17.83
2018-06-27T13:34:09.805Z,17.46
2018-06-27T13:36:39.765Z,17.86
2018-06-27T13:39:10.012Z,17.57
2018-06-27T13:41:40.142Z,17.63
2018-06-27T13:44:09.505Z,17.43
2018-06-27T13:46:38.899Z,17.19
2018-06-27T13:49:10.209Z,17.13
2018-06-27T13:51:40.768Z,16.78
2018-06-27T13:54:11.058Z,16.80
2018-06-27T13:56:41.677Z,16.79
2018-06-27T13:59:11.150Z,16.62
2018-06-27T14:01:42.568Z,16.91
2018-06-27T14:04:11.812Z,16.89
2018-06-27T14:06:42.157Z,16.76
2018-06-27T14:09:11.827Z,16.95
2018-06-27T14:11:41.326Z,17.21
2018-06-27T14:14:11.137Z,17.25
2018-06-27T14:16:40.590Z,16.77
2018-06-27T14:19:09.966Z,16.62
2018-06-27T14:21:39.308Z,16.43
2018-06-27T14:24:08.812Z,16.35
2018-06-27T14:26:38.872Z,16.10
2018-06-27T14:29:08.944Z,15.79
2018-06-27T14:31:39.209Z,15.58
2018-06-27T14:34:10.687Z,15.25
2018-06-27T14:36:42.060Z,15.02
2018-06-27T14:39:11.747Z,15.07
2018-06-27T14:41:43.146Z,15.06
2018-06-27T14:44:13.171Z,14.99
2018-06-27T14:46:42.502Z,15.02
2018-06-27T14:49:11.831Z,14.94
2018-06-27T14:51:41.270Z,14.93
2018-06-27T14:54:10.790Z,15.07
2018-06-27T14:56:40.194Z,15.00
2018-06-27T14:59:11.173Z,14.97
2018-06-27T15:01:41.055Z,14.82
2018-06-27T15:04:12.011Z,14.77
2018-06-27T15:06:41.442Z,14.50
2018-06-27T15:09:11.019Z,14.72
2018-06-27T15:11:40.524Z,14.81
2018-06-27T15:14:10.199Z,14.86
2018-06-27T15:16:40.008Z,14.93
2018-06-27T15:19:10.228Z,15.03
2018-06-27T15:21:39.667Z,14.97
2018-06-27T15:24:10.587Z,15.31
2018-06-27T15:26:40.734Z,15.61
2018-06-27T15:29:10.202Z,15.87
2018-06-27T15:31:41.588Z,16.08
2018-06-27T15:34:11.034Z,16.18
2018-06-27T15:36:40.531Z,15.92
2018-06-27T15:39:11.550Z,15.83
2018-06-27T15:41:40.934Z,16.07
2018-06-27T15:44:10.311Z,15.95
2018-06-27T15:46:40.203Z,15.82
2018-06-27T15:49:10.460Z,15.97
2018-06-27T15:51:40.854Z,15.82
2018-06-27T15:54:10.326Z,15.70
2018-06-27T15:56:39.747Z,15.67
2018-06-27T15:59:09.225Z,15.56
2018-06-27T16:01:38.680Z,15.36
2018-06-27T16:04:09.155Z,15.68
2018-06-27T16:06:39.055Z,15.55
2018-06-27T16:09:09.907Z,15.23
2018-06-27T16:11:39.737Z,14.99
2018-06-27T16:14:09.062Z,14.92
2018-06-27T16:16:39.466Z,14.72
2018-06-27T16:19:09.893Z,14.64
2018-06-27T16:21:40.439Z,14.53
2018-06-27T16:24:09.688Z,14.52
2018-06-27T16:26:39.114Z,14.42
2018-06-27T16:29:08.189Z,14.43
2018-06-27T16:31:38.673Z,14.52
2018-06-27T16:34:07.952Z,14.51
2018-06-27T16:36:37.821Z,14.60
2018-06-27T16:39:10.720Z,14.37
2018-06-27T16:41:40.004Z,14.37
2018-06-27T16:44:09.347Z,14.41
2018-06-27T16:46:39.575Z,14.58
2018-06-27T16:49:09.784Z,14.66
2018-06-27T16:51:39.522Z,14.76
2018-06-27T16:54:09.054Z,14.79
2018-06-27T16:56:38.851Z,14.82
2018-06-27T16:59:08.556Z,14.99
2018-06-27T17:01:38.388Z,14.99
2018-06-27T17:04:07.507Z,14.86
2018-06-27T17:06:36.735Z,14.82
2018-06-27T17:09:08.501Z,14.85
2018-06-27T17:11:37.695Z,14.85
2018-06-27T17:14:07.297Z,14.69
2018-06-27T17:16:37.596Z,14.66
2018-06-27T17:19:07.556Z,14.57
2018-06-27T17:21:36.567Z,14.51
2018-06-27T17:24:05.694Z,14.53
2018-06-27T17:26:34.821Z,14.52
2018-06-27T17:29:04.247Z,14.43
2018-06-27T17:31:35.210Z,14.43
2018-06-27T17:34:05.399Z,14.26
2018-06-27T17:36:34.553Z,14.18
2018-06-27T17:39:04.420Z,14.15
2018-06-27T17:41:35.118Z,14.12
2018-06-27T17:44:06.136Z,14.17
2018-06-27T17:46:36.135Z,14.08
2018-06-27T17:49:06.707Z,14.01
2018-06-27T17:51:36.372Z,13.88
2018-06-27T17:54:06.692Z,13.95
2018-06-27T17:56:37.321Z,13.94
2018-06-27T17:59:07.195Z,13.91
2018-06-27T18:01:36.999Z,13.81
2018-06-27T18:04:06.370Z,13.80
2018-06-27T18:06:37.511Z,13.77
2018-06-27T18:09:10.378Z,13.89
2018-06-27T18:11:40.875Z,13.82
2018-06-27T18:14:10.310Z,13.82
2018-06-27T18:16:39.668Z,13.87
2018-06-27T18:19:09.391Z,13.70
2018-06-27T18:21:38.982Z,13.64
2018-06-27T18:24:10.072Z,13.77
2018-06-27T18:26:39.598Z,13.74
2018-06-27T18:29:09.295Z,13.71
2018-06-27T18:31:41.973Z,13.56
2018-06-27T18:34:12.681Z,13.51
2018-06-27T18:36:43.378Z,13.59
2018-06-27T18:39:13.491Z,13.50
2018-06-27T18:41:43.365Z,13.49
2018-06-27T18:44:14.927Z,13.40
2018-06-27T18:46:45.771Z,13.37
2018-06-27T18:49:16.548Z,13.37
2018-06-27T18:51:46.815Z,13.58
2018-06-27T18:54:16.482Z,13.45
2018-06-27T18:56:46.369Z,13.38
2018-06-27T18:59:16.288Z,13.18
2018-06-27T19:01:47.011Z,13.25
2018-06-27T19:04:17.325Z,13.31
2018-06-27T19:06:47.174Z,13.14
2018-06-27T19:09:18.123Z,13.10
2018-06-27T19:11:47.913Z,13.17
2018-06-27T19:14:18.384Z,13.09
2018-06-27T19:16:48.995Z,13.03
2018-06-27T19:19:19.727Z,13.01
2018-06-27T19:21:49.686Z,13.02
2018-06-27T19:24:20.266Z,12.91
2018-06-27T19:26:53.748Z,12.98
2018-06-27T19:29:24.740Z,12.95
2018-06-27T19:31:54.772Z,13.05
2018-06-27T19:34:25.469Z,13.07
2018-06-27T19:36:56.038Z,13.11
2018-06-27T19:39:37.456Z,13.03
2018-06-27T19:41:55.974Z,12.91
2018-06-27T19:44:25.426Z,12.92
2018-06-27T19:46:55.732Z,12.90
2018-06-27T19:49:25.772Z,12.87
2018-06-27T19:51:56.918Z,12.93
2018-06-27T19:54:28.146Z,12.90
2018-06-27T19:56:58.753Z,12.95
2018-06-27T19:59:28.608Z,12.82
2018-06-27T20:01:58.497Z,12.84
2018-06-27T20:04:28.801Z,12.90
2018-06-27T20:06:59.414Z,12.94
2018-06-27T20:09:30.122Z,12.82
2018-06-27T20:11:59.536Z,12.86
2018-06-27T20:14:30.787Z,12.92
2018-06-27T20:17:00.798Z,12.94
2018-06-27T20:19:30.223Z,12.94
2018-06-27T20:21:59.740Z,12.92
2018-06-27T20:24:33.561Z,12.88
2018-06-27T20:27:03.566Z,12.86
2018-06-27T20:29:33.915Z,12.81
2018-06-27T20:32:03.232Z,12.78
2018-06-27T20:34:32.701Z,12.75
2018-06-27T20:37:02.112Z,12.78
2018-06-27T20:39:31.488Z,12.71
2018-06-27T20:42:00.830Z,12.69
2018-06-27T20:44:31.638Z,12.80
2018-06-27T20:47:01.121Z,12.56
2018-06-27T20:49:30.690Z,12.59
2018-06-27T20:51:59.946Z,12.58
2018-06-27T20:54:30.422Z,12.51
2018-06-27T20:57:00.402Z,12.56
2018-06-27T20:59:33.516Z,12.54
2018-06-27T21:02:03.705Z,12.49
2018-06-27T21:04:35.929Z,12.45
2018-06-27T21:07:05.379Z,12.48
2018-06-27T21:09:35.609Z,12.45
2018-06-27T21:12:05.905Z,12.42
2018-06-27T21:14:35.369Z,12.35
2018-06-27T21:17:05.084Z,12.43
2018-06-27T21:19:34.417Z,12.37
2018-06-27T21:22:03.945Z,12.33
2018-06-27T21:24:34.840Z,12.30
2018-06-27T21:27:04.278Z,12.25
2018-06-27T21:29:33.600Z,12.31
2018-06-27T21:32:02.861Z,12.29
2018-06-27T21:34:32.277Z,12.21
2018-06-27T21:37:02.035Z,12.22
2018-06-27T21:39:31.470Z,12.22
2018-06-27T21:42:01.139Z,12.28
2018-06-27T21:44:30.354Z,12.22
2018-06-27T21:46:59.627Z,12.18
2018-06-27T21:49:28.872Z,12.21
2018-06-27T21:51:58.314Z,12.18
2018-06-27T21:54:27.640Z,12.07
2018-06-27T21:56:57.976Z,12.04
2018-06-27T21:59:27.286Z,12.04
2018-06-27T22:01:56.610Z,12.14
2018-06-27T22:04:25.990Z,12.09
2018-06-27T22:06:55.967Z,12.18
2018-06-27T22:09:26.146Z,12.07
2018-06-27T22:11:55.962Z,12.12
2018-06-27T22:14:25.343Z,12.20
2018-06-27T22:16:55.615Z,12.10
2018-06-27T22:19:26.552Z,12.17
2018-06-27T22:21:56.002Z,12.22
2018-06-27T22:24:25.184Z,12.17
2018-06-27T22:26:55.158Z,12.18
2018-06-27T22:29:24.550Z,12.17
2018-06-27T22:31:55.637Z,12.16
2018-06-27T22:34:25.040Z,12.18
2018-06-27T22:36:54.507Z,12.09
2018-06-27T22:39:25.157Z,12.14
2018-06-27T22:41:55.083Z,12.22
2018-06-27T22:44:24.500Z,12.21
2018-06-27T22:46:54.805Z,12.21
2018-06-27T22:49:24.834Z,12.19
2018-06-27T22:51:54.196Z,12.16
2018-06-27T22:54:23.554Z,12.17
2018-06-27T22:56:53.532Z,12.23
2018-06-27T22:59:22.915Z,12.16
2018-06-27T23:01:53.565Z,12.10
2018-06-27T23:04:22.897Z,12.08
2018-06-27T23:06:52.282Z,12.09
2018-06-27T23:09:22.098Z,12.17
2018-06-27T23:11:51.533Z,12.17
2018-06-27T23:14:21.660Z,12.18
2018-06-27T23:16:51.055Z,12.18
2018-06-27T23:19:20.356Z,12.19
2018-06-27T23:21:50.168Z,12.23
2018-06-27T23:24:20.283Z,12.23
2018-06-27T23:26:49.494Z,12.16
2018-06-27T23:29:20.056Z,12.17
2018-06-27T23:31:51.305Z,12.07
2018-06-27T23:34:20.689Z,12.11
2018-06-27T23:36:51.193Z,12.12
2018-06-27T23:39:21.302Z,12.21
2018-06-27T23:41:50.625Z,12.21
2018-06-27T23:44:19.964Z,12.16
2018-06-27T23:46:52.069Z,12.11
2018-06-27T23:49:22.373Z,11.99
2018-06-27T23:51:51.662Z,12.03
2018-06-27T23:54:21.189Z,12.08
2018-06-27T23:56:50.599Z,12.03
2018-06-27T23:59:20.048Z,12.05
